sensor_id;sensor_type;location;lat;lon;timestamp;P1;durP1;ratioP1;P2;durP2;ratioP2
60610;SDS011;46439;51.164;13.572;2023-03-01T00:01:22;21.10;;;12.80;;
60610;SDS011;46439;51.164;13.572;2023-03-01T00:03:53;24.60;;;12.30;;
60610;SDS011;46439;51.164;13.572;2023-03-01T00:06:22;24.50;;;12.90;;
60610;SDS011;46439;51.164;13.572;2023-03-01T00:08:52;23.90;;;12.30;;
60610;SDS011;46439;51.164;13.572;2023-03-01T00:11:21;24.10;;;13.70;;
60610;SDS011;46439;51.164;13.572;2023-03-01T00:13:52;25.20;;;13.00;;
60610;SDS011;46439;51.164;13.572;2023-03-01T00:16:23;21.20;;;11.90;;
60610;SDS011;46439;51.164;13.572;2023-03-01T00:18:54;29.60;;;13.80;;
60610;SDS011;46439;51.164;13.572;2023-03-01T00:21:43;27.90;;;14.70;;
60610;SDS011;46439;51.164;13.572;2023-03-01T00:24:12;25.90;;;14.50;;
60610;SDS011;46439;51.164;13.572;2023-03-01T00:26:43;28.00;;;14.70;;
60610;SDS011;46439;51.164;13.572;2023-03-01T00:29:13;27.00;;;13.70;;
60610;SDS011;46439;51.164;13.572;2023-03-01T00:31:41;33.80;;;19.10;;
60610;SDS011;46439;51.164;13.572;2023-03-01T00:34:10;30.00;;;15.70;;
60610;SDS011;46439;51.164;13.572;2023-03-01T00:36:38;28.90;;;15.90;;
60610;SDS011;46439;51.164;13.572;2023-03-01T00:39:09;27.10;;;13.90;;
60610;SDS011;46439;51.164;13.572;2023-03-01T00:41:40;29.70;;;18.10;;
60610;SDS011;46439;51.164;13.572;2023-03-01T00:44:09;27.90;;;16.00;;
60610;SDS011;46439;51.164;13.572;2023-03-01T00:46:38;30.40;;;16.40;;
60610;SDS011;46439;51.164;13.572;2023-03-01T00:49:06;27.10;;;15.90;;
60610;SDS011;46439;51.164;13.572;2023-03-01T00:51:35;31.70;;;16.40;;
60610;SDS011;46439;51.164;13.572;2023-03-01T00:54:04;25.60;;;14.30;;
60610;SDS011;46439;51.164;13.572;2023-03-01T00:56:32;25.70;;;14.30;;
60610;SDS011;46439;51.164;13.572;2023-03-01T00:59:01;30.20;;;16.70;;
60610;SDS011;46439;51.164;13.572;2023-03-01T01:01:30;32.10;;;17.60;;
60610;SDS011;46439;51.164;13.572;2023-03-01T01:03:59;28.20;;;17.30;;
60610;SDS011;46439;51.164;13.572;2023-03-01T01:06:30;26.60;;;16.20;;
60610;SDS011;46439;51.164;13.572;2023-03-01T01:09:00;39.50;;;19.90;;
60610;SDS011;46439;51.164;13.572;2023-03-01T01:11:30;39.60;;;20.40;;
60610;SDS011;46439;51.164;13.572;2023-03-01T01:13:59;35.50;;;18.00;;
60610;SDS011;46439;51.164;13.572;2023-03-01T01:16:28;25.20;;;15.60;;
60610;SDS011;46439;51.164;13.572;2023-03-01T01:18:56;29.80;;;15.10;;
60610;SDS011;46439;51.164;13.572;2023-03-01T01:21:25;20.60;;;13.00;;
60610;SDS011;46439;51.164;13.572;2023-03-01T01:23:54;24.50;;;14.60;;
60610;SDS011;46439;51.164;13.572;2023-03-01T01:26:23;21.70;;;12.80;;
60610;SDS011;46439;51.164;13.572;2023-03-01T01:28:54;24.70;;;13.30;;
60610;SDS011;46439;51.164;13.572;2023-03-01T01:31:23;29.90;;;14.90;;
60610;SDS011;46439;51.164;13.572;2023-03-01T01:33:53;22.80;;;13.90;;
60610;SDS011;46439;51.164;13.572;2023-03-01T01:36:22;28.60;;;15.00;;
60610;SDS011;46439;51.164;13.572;2023-03-01T01:38:51;24.40;;;14.10;;
60610;SDS011;46439;51.164;13.572;2023-03-01T01:41:19;23.20;;;12.80;;
60610;SDS011;46439;51.164;13.572;2023-03-01T01:44:08;23.60;;;14.30;;
60610;SDS011;46439;51.164;13.572;2023-03-01T01:46:39;24.00;;;14.10;;
60610;SDS011;46439;51.164;13.572;2023-03-01T01:49:14;25.40;;;14.30;;
60610;SDS011;46439;51.164;13.572;2023-03-01T01:51:47;23.30;;;14.20;;
60610;SDS011;46439;51.164;13.572;2023-03-01T01:54:21;23.50;;;14.40;;
60610;SDS011;46439;51.164;13.572;2023-03-01T01:56:56;23.80;;;13.80;;
60610;SDS011;46439;51.164;13.572;2023-03-01T01:59:28;23.20;;;13.60;;
60610;SDS011;46439;51.164;13.572;2023-03-01T02:02:00;25.30;;;14.30;;
60610;SDS011;46439;51.164;13.572;2023-03-01T02:04:32;25.90;;;13.60;;
60610;SDS011;46439;51.164;13.572;2023-03-01T02:07:02;22.80;;;13.20;;
60610;SDS011;46439;51.164;13.572;2023-03-01T02:09:36;22.00;;;13.30;;
60610;SDS011;46439;51.164;13.572;2023-03-01T02:12:21;21.40;;;13.40;;
60610;SDS011;46439;51.164;13.572;2023-03-01T02:15:12;24.60;;;14.00;;
60610;SDS011;46439;51.164;13.572;2023-03-01T02:17:56;23.40;;;14.10;;
60610;SDS011;46439;51.164;13.572;2023-03-01T02:20:50;25.70;;;14.40;;
60610;SDS011;46439;51.164;13.572;2023-03-01T02:23:51;31.70;;;15.10;;
60610;SDS011;46439;51.164;13.572;2023-03-01T02:26:31;35.80;;;16.70;;
60610;SDS011;46439;51.164;13.572;2023-03-01T02:29:25;29.40;;;17.00;;
60610;SDS011;46439;51.164;13.572;2023-03-01T02:31:55;30.60;;;17.70;;
60610;SDS011;46439;51.164;13.572;2023-03-01T02:34:48;31.50;;;17.40;;
60610;SDS011;46439;51.164;13.572;2023-03-01T02:37:20;30.10;;;16.80;;
60610;SDS011;46439;51.164;13.572;2023-03-01T02:39:55;28.40;;;16.50;;
60610;SDS011;46439;51.164;13.572;2023-03-01T02:42:31;29.40;;;16.70;;
60610;SDS011;46439;51.164;13.572;2023-03-01T02:45:03;30.80;;;16.70;;
60610;SDS011;46439;51.164;13.572;2023-03-01T02:47:33;32.10;;;17.90;;
60610;SDS011;46439;51.164;13.572;2023-03-01T02:50:15;30.20;;;16.80;;
60610;SDS011;46439;51.164;13.572;2023-03-01T02:53:00;28.30;;;15.20;;
60610;SDS011;46439;51.164;13.572;2023-03-01T02:55:34;27.60;;;15.80;;
60610;SDS011;46439;51.164;13.572;2023-03-01T02:58:02;29.40;;;16.50;;
60610;SDS011;46439;51.164;13.572;2023-03-01T03:00:32;34.90;;;17.40;;
60610;SDS011;46439;51.164;13.572;2023-03-01T03:03:06;34.90;;;19.30;;
60610;SDS011;46439;51.164;13.572;2023-03-01T03:05:36;43.30;;;20.90;;
60610;SDS011;46439;51.164;13.572;2023-03-01T03:08:04;44.30;;;21.10;;
60610;SDS011;46439;51.164;13.572;2023-03-01T03:10:35;46.30;;;21.80;;
60610;SDS011;46439;51.164;13.572;2023-03-01T03:13:06;38.30;;;19.80;;
60610;SDS011;46439;51.164;13.572;2023-03-01T03:15:37;40.00;;;19.00;;
60610;SDS011;46439;51.164;13.572;2023-03-01T03:18:08;37.80;;;20.40;;
60610;SDS011;46439;51.164;13.572;2023-03-01T03:20:38;36.90;;;19.50;;
60610;SDS011;46439;51.164;13.572;2023-03-01T03:23:08;36.70;;;18.20;;
60610;SDS011;46439;51.164;13.572;2023-03-01T03:25:37;36.00;;;18.10;;
60610;SDS011;46439;51.164;13.572;2023-03-01T03:28:06;36.80;;;19.10;;
60610;SDS011;46439;51.164;13.572;2023-03-01T03:30:38;35.40;;;18.50;;
60610;SDS011;46439;51.164;13.572;2023-03-01T03:33:07;37.70;;;19.80;;
60610;SDS011;46439;51.164;13.572;2023-03-01T03:35:39;38.20;;;19.30;;
60610;SDS011;46439;51.164;13.572;2023-03-01T03:38:10;32.90;;;19.20;;
60610;SDS011;46439;51.164;13.572;2023-03-01T03:40:44;39.00;;;19.10;;
60610;SDS011;46439;51.164;13.572;2023-03-01T03:43:15;32.60;;;18.70;;
60610;SDS011;46439;51.164;13.572;2023-03-01T03:45:45;32.50;;;18.90;;
60610;SDS011;46439;51.164;13.572;2023-03-01T03:48:14;36.10;;;20.10;;
60610;SDS011;46439;51.164;13.572;2023-03-01T03:50:47;36.30;;;19.80;;
60610;SDS011;46439;51.164;13.572;2023-03-01T03:53:16;40.60;;;18.80;;
60610;SDS011;46439;51.164;13.572;2023-03-01T03:55:45;36.00;;;19.80;;
60610;SDS011;46439;51.164;13.572;2023-03-01T03:58:16;36.70;;;19.00;;
60610;SDS011;46439;51.164;13.572;2023-03-01T04:00:46;35.80;;;19.20;;
60610;SDS011;46439;51.164;13.572;2023-03-01T04:03:17;30.90;;;19.20;;
60610;SDS011;46439;51.164;13.572;2023-03-01T04:05:46;34.00;;;19.50;;
60610;SDS011;46439;51.164;13.572;2023-03-01T04:08:18;34.60;;;19.90;;
60610;SDS011;46439;51.164;13.572;2023-03-01T04:10:49;34.70;;;20.30;;
60610;SDS011;46439;51.164;13.572;2023-03-01T04:13:22;37.50;;;21.00;;
60610;SDS011;46439;51.164;13.572;2023-03-01T04:15:52;36.20;;;20.60;;
60610;SDS011;46439;51.164;13.572;2023-03-01T04:18:22;39.00;;;20.20;;
60610;SDS011;46439;51.164;13.572;2023-03-01T04:20:52;36.10;;;20.40;;
60610;SDS011;46439;51.164;13.572;2023-03-01T04:23:21;36.20;;;20.20;;
60610;SDS011;46439;51.164;13.572;2023-03-01T04:25:50;37.80;;;19.90;;
60610;SDS011;46439;51.164;13.572;2023-03-01T04:28:21;36.70;;;21.30;;
60610;SDS011;46439;51.164;13.572;2023-03-01T04:30:54;37.40;;;21.70;;
60610;SDS011;46439;51.164;13.572;2023-03-01T04:33:24;39.30;;;21.00;;
60610;SDS011;46439;51.164;13.572;2023-03-01T04:35:53;36.40;;;21.20;;
60610;SDS011;46439;51.164;13.572;2023-03-01T04:38:21;37.30;;;21.10;;
60610;SDS011;46439;51.164;13.572;2023-03-01T04:40:50;37.40;;;21.20;;
60610;SDS011;46439;51.164;13.572;2023-03-01T04:43:18;40.40;;;21.90;;
60610;SDS011;46439;51.164;13.572;2023-03-01T04:45:46;39.90;;;21.50;;
60610;SDS011;46439;51.164;13.572;2023-03-01T04:48:15;37.00;;;22.70;;
60610;SDS011;46439;51.164;13.572;2023-03-01T04:50:43;37.90;;;22.30;;
60610;SDS011;46439;51.164;13.572;2023-03-01T04:53:12;39.70;;;21.20;;
60610;SDS011;46439;51.164;13.572;2023-03-01T04:55:40;44.10;;;22.30;;
60610;SDS011;46439;51.164;13.572;2023-03-01T04:58:09;38.00;;;21.50;;
60610;SDS011;46439;51.164;13.572;2023-03-01T05:00:37;38.90;;;20.90;;
60610;SDS011;46439;51.164;13.572;2023-03-01T05:03:06;32.10;;;20.10;;
60610;SDS011;46439;51.164;13.572;2023-03-01T05:05:35;35.30;;;20.00;;
60610;SDS011;46439;51.164;13.572;2023-03-01T05:08:06;36.90;;;20.90;;
60610;SDS011;46439;51.164;13.572;2023-03-01T05:10:35;38.30;;;19.80;;
60610;SDS011;46439;51.164;13.572;2023-03-01T05:13:05;37.40;;;20.00;;
60610;SDS011;46439;51.164;13.572;2023-03-01T05:15:34;35.90;;;19.50;;
60610;SDS011;46439;51.164;13.572;2023-03-01T05:18:03;41.20;;;21.10;;
60610;SDS011;46439;51.164;13.572;2023-03-01T05:20:37;39.50;;;22.20;;
60610;SDS011;46439;51.164;13.572;2023-03-01T05:23:06;38.70;;;21.90;;
60610;SDS011;46439;51.164;13.572;2023-03-01T05:25:35;40.60;;;23.50;;
60610;SDS011;46439;51.164;13.572;2023-03-01T05:28:07;40.90;;;23.60;;
60610;SDS011;46439;51.164;13.572;2023-03-01T05:30:38;39.00;;;23.30;;
60610;SDS011;46439;51.164;13.572;2023-03-01T05:33:08;41.00;;;22.60;;
60610;SDS011;46439;51.164;13.572;2023-03-01T05:35:40;37.30;;;21.90;;
60610;SDS011;46439;51.164;13.572;2023-03-01T05:38:10;35.90;;;21.30;;
60610;SDS011;46439;51.164;13.572;2023-03-01T05:40:43;42.10;;;23.30;;
60610;SDS011;46439;51.164;13.572;2023-03-01T05:43:13;39.30;;;22.80;;
60610;SDS011;46439;51.164;13.572;2023-03-01T05:45:43;40.10;;;23.20;;
60610;SDS011;46439;51.164;13.572;2023-03-01T05:48:12;36.60;;;21.60;;
60610;SDS011;46439;51.164;13.572;2023-03-01T05:50:42;34.40;;;20.10;;
60610;SDS011;46439;51.164;13.572;2023-03-01T05:53:12;39.20;;;21.80;;
60610;SDS011;46439;51.164;13.572;2023-03-01T05:55:43;41.10;;;21.50;;
60610;SDS011;46439;51.164;13.572;2023-03-01T05:58:14;40.60;;;22.00;;
60610;SDS011;46439;51.164;13.572;2023-03-01T06:00:46;41.80;;;23.20;;
60610;SDS011;46439;51.164;13.572;2023-03-01T06:03:16;46.40;;;26.20;;
60610;SDS011;46439;51.164;13.572;2023-03-01T06:05:45;42.50;;;25.10;;
60610;SDS011;46439;51.164;13.572;2023-03-01T06:08:14;43.80;;;25.10;;
60610;SDS011;46439;51.164;13.572;2023-03-01T06:10:42;39.50;;;23.30;;
60610;SDS011;46439;51.164;13.572;2023-03-01T06:13:12;39.10;;;22.80;;
60610;SDS011;46439;51.164;13.572;2023-03-01T06:15:41;36.00;;;22.10;;
60610;SDS011;46439;51.164;13.572;2023-03-01T06:18:09;38.30;;;23.70;;
60610;SDS011;46439;51.164;13.572;2023-03-01T06:20:38;40.40;;;23.10;;
60610;SDS011;46439;51.164;13.572;2023-03-01T06:23:07;41.30;;;23.70;;
60610;SDS011;46439;51.164;13.572;2023-03-01T06:25:35;39.60;;;22.60;;
60610;SDS011;46439;51.164;13.572;2023-03-01T06:28:05;35.20;;;23.10;;
60610;SDS011;46439;51.164;13.572;2023-03-01T06:30:34;37.80;;;21.40;;
60610;SDS011;46439;51.164;13.572;2023-03-01T06:33:02;42.00;;;23.00;;
60610;SDS011;46439;51.164;13.572;2023-03-01T06:35:31;36.10;;;21.30;;
60610;SDS011;46439;51.164;13.572;2023-03-01T06:38:00;34.90;;;21.20;;
60610;SDS011;46439;51.164;13.572;2023-03-01T06:40:30;39.60;;;21.80;;
60610;SDS011;46439;51.164;13.572;2023-03-01T06:43:01;38.50;;;22.30;;
60610;SDS011;46439;51.164;13.572;2023-03-01T06:45:31;35.30;;;22.00;;
60610;SDS011;46439;51.164;13.572;2023-03-01T06:48:03;38.90;;;23.10;;
60610;SDS011;46439;51.164;13.572;2023-03-01T06:50:32;34.60;;;20.70;;
60610;SDS011;46439;51.164;13.572;2023-03-01T06:53:02;37.30;;;21.60;;
60610;SDS011;46439;51.164;13.572;2023-03-01T06:55:31;41.60;;;23.70;;
60610;SDS011;46439;51.164;13.572;2023-03-01T06:58:00;38.70;;;22.50;;
60610;SDS011;46439;51.164;13.572;2023-03-01T07:00:29;38.70;;;22.90;;
60610;SDS011;46439;51.164;13.572;2023-03-01T07:02:59;39.60;;;23.70;;
60610;SDS011;46439;51.164;13.572;2023-03-01T07:05:29;42.30;;;22.20;;
60610;SDS011;46439;51.164;13.572;2023-03-01T07:08:00;38.60;;;20.80;;
60610;SDS011;46439;51.164;13.572;2023-03-01T07:10:28;44.00;;;21.50;;
60610;SDS011;46439;51.164;13.572;2023-03-01T07:12:57;38.10;;;21.30;;
60610;SDS011;46439;51.164;13.572;2023-03-01T07:15:26;36.20;;;21.50;;
60610;SDS011;46439;51.164;13.572;2023-03-01T07:17:55;37.20;;;20.50;;
60610;SDS011;46439;51.164;13.572;2023-03-01T07:20:24;36.30;;;21.00;;
60610;SDS011;46439;51.164;13.572;2023-03-01T07:22:53;40.40;;;22.30;;
60610;SDS011;46439;51.164;13.572;2023-03-01T07:25:25;42.10;;;22.20;;
60610;SDS011;46439;51.164;13.572;2023-03-01T07:27:56;39.10;;;21.10;;
60610;SDS011;46439;51.164;13.572;2023-03-01T07:30:27;39.10;;;22.00;;
60610;SDS011;46439;51.164;13.572;2023-03-01T07:32:56;36.50;;;22.50;;
60610;SDS011;46439;51.164;13.572;2023-03-01T07:35:26;45.10;;;22.60;;
60610;SDS011;46439;51.164;13.572;2023-03-01T07:37:56;35.60;;;21.20;;
60610;SDS011;46439;51.164;13.572;2023-03-01T07:40:25;38.50;;;22.40;;
60610;SDS011;46439;51.164;13.572;2023-03-01T07:42:58;33.50;;;20.60;;
60610;SDS011;46439;51.164;13.572;2023-03-01T07:45:28;36.70;;;21.80;;
60610;SDS011;46439;51.164;13.572;2023-03-01T07:47:57;42.30;;;22.80;;
60610;SDS011;46439;51.164;13.572;2023-03-01T07:50:25;38.90;;;22.80;;
60610;SDS011;46439;51.164;13.572;2023-03-01T07:52:55;39.60;;;21.50;;
60610;SDS011;46439;51.164;13.572;2023-03-01T07:55:23;37.60;;;21.20;;
60610;SDS011;46439;51.164;13.572;2023-03-01T07:57:52;34.40;;;21.30;;
60610;SDS011;46439;51.164;13.572;2023-03-01T08:00:51;42.80;;;22.50;;
60610;SDS011;46439;51.164;13.572;2023-03-01T08:03:30;40.80;;;23.70;;
60610;SDS011;46439;51.164;13.572;2023-03-01T08:06:09;37.30;;;22.20;;
60610;SDS011;46439;51.164;13.572;2023-03-01T08:09:01;35.30;;;22.60;;
60610;SDS011;46439;51.164;13.572;2023-03-01T08:11:34;42.10;;;23.80;;
60610;SDS011;46439;51.164;13.572;2023-03-01T08:14:09;36.50;;;21.50;;
60610;SDS011;46439;51.164;13.572;2023-03-01T08:16:47;35.00;;;21.40;;
60610;SDS011;46439;51.164;13.572;2023-03-01T08:19:17;36.00;;;23.00;;
60610;SDS011;46439;51.164;13.572;2023-03-01T08:22:27;38.10;;;21.40;;
60610;SDS011;46439;51.164;13.572;2023-03-01T08:24:59;38.30;;;21.70;;
60610;SDS011;46439;51.164;13.572;2023-03-01T08:27:34;37.10;;;22.10;;
60610;SDS011;46439;51.164;13.572;2023-03-01T08:30:44;38.80;;;22.10;;
60610;SDS011;46439;51.164;13.572;2023-03-01T08:33:13;38.50;;;22.70;;
60610;SDS011;46439;51.164;13.572;2023-03-01T08:36:13;40.50;;;22.50;;
60610;SDS011;46439;51.164;13.572;2023-03-01T08:38:42;38.30;;;22.60;;
60610;SDS011;46439;51.164;13.572;2023-03-01T08:41:20;37.20;;;21.40;;
60610;SDS011;46439;51.164;13.572;2023-03-01T08:43:49;42.50;;;23.10;;
60610;SDS011;46439;51.164;13.572;2023-03-01T08:46:19;39.40;;;22.70;;
60610;SDS011;46439;51.164;13.572;2023-03-01T08:48:51;38.40;;;22.90;;
60610;SDS011;46439;51.164;13.572;2023-03-01T08:51:28;35.00;;;21.90;;
60610;SDS011;46439;51.164;13.572;2023-03-01T08:54:02;39.10;;;22.90;;
60610;SDS011;46439;51.164;13.572;2023-03-01T08:57:02;39.00;;;22.90;;
60610;SDS011;46439;51.164;13.572;2023-03-01T08:59:31;39.30;;;23.10;;
60610;SDS011;46439;51.164;13.572;2023-03-01T09:10:43;72.50;;;37.70;;
60610;SDS011;46439;51.164;13.572;2023-03-01T09:13:11;55.40;;;31.60;;
60610;SDS011;46439;51.164;13.572;2023-03-01T09:15:40;45.50;;;23.90;;
60610;SDS011;46439;51.164;13.572;2023-03-01T09:18:08;44.60;;;24.90;;
60610;SDS011;46439;51.164;13.572;2023-03-01T09:20:37;36.90;;;22.80;;
60610;SDS011;46439;51.164;13.572;2023-03-01T09:23:05;40.30;;;23.10;;
60610;SDS011;46439;51.164;13.572;2023-03-01T09:25:35;38.90;;;23.00;;
60610;SDS011;46439;51.164;13.572;2023-03-01T09:28:04;31.20;;;18.30;;
60610;SDS011;46439;51.164;13.572;2023-03-01T09:30:33;37.20;;;21.10;;
60610;SDS011;46439;51.164;13.572;2023-03-01T09:33:01;37.10;;;21.80;;
60610;SDS011;46439;51.164;13.572;2023-03-01T09:35:29;31.60;;;20.00;;
60610;SDS011;46439;51.164;13.572;2023-03-01T09:37:58;29.00;;;17.30;;
60610;SDS011;46439;51.164;13.572;2023-03-01T09:40:26;28.10;;;16.30;;
60610;SDS011;46439;51.164;13.572;2023-03-01T09:42:58;29.40;;;17.60;;
60610;SDS011;46439;51.164;13.572;2023-03-01T09:45:34;30.10;;;18.50;;
60610;SDS011;46439;51.164;13.572;2023-03-01T09:48:09;34.90;;;18.10;;
60610;SDS011;46439;51.164;13.572;2023-03-01T09:50:42;28.90;;;17.10;;
60610;SDS011;46439;51.164;13.572;2023-03-01T09:53:16;26.00;;;17.20;;
60610;SDS011;46439;51.164;13.572;2023-03-01T09:55:48;29.30;;;18.40;;
60610;SDS011;46439;51.164;13.572;2023-03-01T09:58:27;28.70;;;17.60;;
60610;SDS011;46439;51.164;13.572;2023-03-01T10:01:03;32.80;;;17.30;;
60610;SDS011;46439;51.164;13.572;2023-03-01T10:03:43;29.80;;;18.10;;
60610;SDS011;46439;51.164;13.572;2023-03-01T10:06:23;30.40;;;17.70;;
60610;SDS011;46439;51.164;13.572;2023-03-01T10:08:53;28.50;;;15.90;;
60610;SDS011;46439;51.164;13.572;2023-03-01T10:11:27;30.40;;;17.50;;
60610;SDS011;46439;51.164;13.572;2023-03-01T10:13:58;27.70;;;15.40;;
60610;SDS011;46439;51.164;13.572;2023-03-01T10:16:36;32.20;;;16.90;;
60610;SDS011;46439;51.164;13.572;2023-03-01T10:19:13;29.20;;;16.70;;
60610;SDS011;46439;51.164;13.572;2023-03-01T10:21:48;27.50;;;17.00;;
60610;SDS011;46439;51.164;13.572;2023-03-01T10:24:19;29.30;;;16.80;;
60610;SDS011;46439;51.164;13.572;2023-03-01T10:26:49;28.70;;;15.70;;
60610;SDS011;46439;51.164;13.572;2023-03-01T10:29:24;32.00;;;18.10;;
60610;SDS011;46439;51.164;13.572;2023-03-01T10:31:58;29.60;;;17.70;;
60610;SDS011;46439;51.164;13.572;2023-03-01T10:34:28;24.10;;;15.30;;
60610;SDS011;46439;51.164;13.572;2023-03-01T10:37:01;24.50;;;14.50;;
60610;SDS011;46439;51.164;13.572;2023-03-01T10:39:35;26.50;;;14.80;;
60610;SDS011;46439;51.164;13.572;2023-03-01T10:42:22;28.60;;;15.70;;
60610;SDS011;46439;51.164;13.572;2023-03-01T10:44:55;26.90;;;16.00;;
60610;SDS011;46439;51.164;13.572;2023-03-01T10:47:24;30.00;;;16.70;;
60610;SDS011;46439;51.164;13.572;2023-03-01T10:49:55;27.50;;;14.70;;
60610;SDS011;46439;51.164;13.572;2023-03-01T10:52:27;29.60;;;16.50;;
60610;SDS011;46439;51.164;13.572;2023-03-01T10:57:34;29.80;;;16.10;;
60610;SDS011;46439;51.164;13.572;2023-03-01T11:03:03;24.20;;;15.10;;
60610;SDS011;46439;51.164;13.572;2023-03-01T11:05:50;28.90;;;15.60;;
60610;SDS011;46439;51.164;13.572;2023-03-01T11:08:31;25.60;;;15.30;;
60610;SDS011;46439;51.164;13.572;2023-03-01T11:11:17;26.10;;;14.60;;
60610;SDS011;46439;51.164;13.572;2023-03-01T11:13:55;23.30;;;13.30;;
60610;SDS011;46439;51.164;13.572;2023-03-01T11:16:27;22.90;;;12.90;;
60610;SDS011;46439;51.164;13.572;2023-03-01T11:19:04;23.60;;;12.20;;
60610;SDS011;46439;51.164;13.572;2023-03-01T11:21:45;23.60;;;12.50;;
60610;SDS011;46439;51.164;13.572;2023-03-01T11:24:31;21.50;;;11.30;;
60610;SDS011;46439;51.164;13.572;2023-03-01T11:27:08;23.40;;;13.00;;
60610;SDS011;46439;51.164;13.572;2023-03-01T11:29:46;19.00;;;11.00;;
60610;SDS011;46439;51.164;13.572;2023-03-01T11:32:19;16.70;;;10.40;;
60610;SDS011;46439;51.164;13.572;2023-03-01T11:37:22;21.10;;;9.80;;
60610;SDS011;46439;51.164;13.572;2023-03-01T11:40:02;18.70;;;10.80;;
60610;SDS011;46439;51.164;13.572;2023-03-01T11:42:42;13.60;;;8.50;;
60610;SDS011;46439;51.164;13.572;2023-03-01T11:45:17;22.50;;;10.00;;
60610;SDS011;46439;51.164;13.572;2023-03-01T11:47:53;17.80;;;10.10;;
60610;SDS011;46439;51.164;13.572;2023-03-01T11:50:33;18.50;;;10.70;;
60610;SDS011;46439;51.164;13.572;2023-03-01T11:53:11;18.30;;;11.10;;
60610;SDS011;46439;51.164;13.572;2023-03-01T11:55:57;21.10;;;11.90;;
60610;SDS011;46439;51.164;13.572;2023-03-01T11:58:38;18.20;;;11.30;;
60610;SDS011;46439;51.164;13.572;2023-03-01T12:01:23;20.80;;;12.40;;
60610;SDS011;46439;51.164;13.572;2023-03-01T12:04:07;21.60;;;12.40;;
60610;SDS011;46439;51.164;13.572;2023-03-01T12:06:59;19.10;;;11.60;;
60610;SDS011;46439;51.164;13.572;2023-03-01T12:09:34;17.60;;;10.10;;
60610;SDS011;46439;51.164;13.572;2023-03-01T12:18:29;15.00;;;8.40;;
60610;SDS011;46439;51.164;13.572;2023-03-01T12:21:08;15.50;;;8.50;;
60610;SDS011;46439;51.164;13.572;2023-03-01T12:26:48;16.80;;;9.90;;
60610;SDS011;46439;51.164;13.572;2023-03-01T12:29:25;16.00;;;10.20;;
60610;SDS011;46439;51.164;13.572;2023-03-01T12:32:20;19.00;;;9.80;;
60610;SDS011;46439;51.164;13.572;2023-03-01T12:35:09;14.60;;;9.00;;
60610;SDS011;46439;51.164;13.572;2023-03-01T12:37:49;14.50;;;8.40;;
60610;SDS011;46439;51.164;13.572;2023-03-01T12:40:34;11.90;;;6.10;;
60610;SDS011;46439;51.164;13.572;2023-03-01T12:43:16;16.10;;;8.80;;
60610;SDS011;46439;51.164;13.572;2023-03-01T12:46:04;16.70;;;9.50;;
60610;SDS011;46439;51.164;13.572;2023-03-01T12:48:50;16.10;;;9.90;;
60610;SDS011;46439;51.164;13.572;2023-03-01T12:51:29;18.10;;;10.20;;
60610;SDS011;46439;51.164;13.572;2023-03-01T12:54:00;20.40;;;10.20;;
60610;SDS011;46439;51.164;13.572;2023-03-01T12:56:34;15.50;;;9.50;;
60610;SDS011;46439;51.164;13.572;2023-03-01T12:59:09;18.70;;;10.10;;
60610;SDS011;46439;51.164;13.572;2023-03-01T13:01:45;14.10;;;9.20;;
60610;SDS011;46439;51.164;13.572;2023-03-01T13:07:19;16.60;;;9.80;;
60610;SDS011;46439;51.164;13.572;2023-03-01T13:09:58;19.60;;;10.70;;
60610;SDS011;46439;51.164;13.572;2023-03-01T13:12:45;21.00;;;10.80;;
60610;SDS011;46439;51.164;13.572;2023-03-01T13:15:31;16.60;;;10.30;;
60610;SDS011;46439;51.164;13.572;2023-03-01T13:18:02;17.50;;;10.90;;
60610;SDS011;46439;51.164;13.572;2023-03-01T13:20:53;16.80;;;10.30;;
60610;SDS011;46439;51.164;13.572;2023-03-01T13:23:26;20.70;;;10.60;;
60610;SDS011;46439;51.164;13.572;2023-03-01T13:26:01;17.80;;;10.60;;
60610;SDS011;46439;51.164;13.572;2023-03-01T13:28:50;20.00;;;10.50;;
60610;SDS011;46439;51.164;13.572;2023-03-01T13:34:44;16.00;;;9.80;;
60610;SDS011;46439;51.164;13.572;2023-03-01T13:37:33;18.70;;;11.00;;
60610;SDS011;46439;51.164;13.572;2023-03-01T13:45:54;15.40;;;10.50;;
60610;SDS011;46439;51.164;13.572;2023-03-01T13:48:24;17.50;;;9.40;;
60610;SDS011;46439;51.164;13.572;2023-03-01T13:50:57;18.10;;;9.80;;
60610;SDS011;46439;51.164;13.572;2023-03-01T13:53:29;17.50;;;10.90;;
60610;SDS011;46439;51.164;13.572;2023-03-01T13:56:03;14.40;;;9.20;;
60610;SDS011;46439;51.164;13.572;2023-03-01T13:58:46;20.50;;;10.70;;
60610;SDS011;46439;51.164;13.572;2023-03-01T14:01:25;14.80;;;9.80;;
60610;SDS011;46439;51.164;13.572;2023-03-01T14:03:56;18.70;;;10.20;;
60610;SDS011;46439;51.164;13.572;2023-03-01T14:06:25;15.30;;;9.90;;
60610;SDS011;46439;51.164;13.572;2023-03-01T14:09:04;16.20;;;10.10;;
60610;SDS011;46439;51.164;13.572;2023-03-01T14:11:45;18.00;;;10.00;;
60610;SDS011;46439;51.164;13.572;2023-03-01T14:14:31;15.10;;;9.30;;
60610;SDS011;46439;51.164;13.572;2023-03-01T14:17:19;16.40;;;9.50;;
60610;SDS011;46439;51.164;13.572;2023-03-01T14:20:11;16.30;;;9.50;;
60610;SDS011;46439;51.164;13.572;2023-03-01T14:22:43;14.00;;;9.30;;
60610;SDS011;46439;51.164;13.572;2023-03-01T14:28:02;18.60;;;9.80;;
60610;SDS011;46439;51.164;13.572;2023-03-01T14:30:41;15.10;;;9.70;;
60610;SDS011;46439;51.164;13.572;2023-03-01T14:33:19;15.70;;;9.10;;
60610;SDS011;46439;51.164;13.572;2023-03-01T14:35:54;19.20;;;8.90;;
60610;SDS011;46439;51.164;13.572;2023-03-01T14:38:30;15.80;;;9.50;;
60610;SDS011;46439;51.164;13.572;2023-03-01T14:41:03;15.50;;;9.40;;
60610;SDS011;46439;51.164;13.572;2023-03-01T14:43:34;20.90;;;9.70;;
60610;SDS011;46439;51.164;13.572;2023-03-01T14:46:04;15.80;;;8.70;;
60610;SDS011;46439;51.164;13.572;2023-03-01T14:48:32;14.50;;;9.10;;
60610;SDS011;46439;51.164;13.572;2023-03-01T14:51:01;20.10;;;9.30;;
60610;SDS011;46439;51.164;13.572;2023-03-01T14:53:33;16.10;;;9.30;;
60610;SDS011;46439;51.164;13.572;2023-03-01T14:56:02;14.10;;;8.50;;
60610;SDS011;46439;51.164;13.572;2023-03-01T14:58:32;14.10;;;8.60;;
60610;SDS011;46439;51.164;13.572;2023-03-01T15:01:02;16.50;;;8.40;;
60610;SDS011;46439;51.164;13.572;2023-03-01T15:03:32;20.10;;;8.70;;
60610;SDS011;46439;51.164;13.572;2023-03-01T15:06:07;14.00;;;7.70;;
60610;SDS011;46439;51.164;13.572;2023-03-01T15:08:39;13.90;;;8.60;;
60610;SDS011;46439;51.164;13.572;2023-03-01T15:11:19;15.80;;;8.70;;
60610;SDS011;46439;51.164;13.572;2023-03-01T15:13:51;15.10;;;7.30;;
60610;SDS011;46439;51.164;13.572;2023-03-01T15:16:20;12.90;;;7.10;;
60610;SDS011;46439;51.164;13.572;2023-03-01T15:18:52;14.00;;;7.90;;
60610;SDS011;46439;51.164;13.572;2023-03-01T15:21:23;14.90;;;7.60;;
60610;SDS011;46439;51.164;13.572;2023-03-01T15:26:27;12.90;;;7.20;;
60610;SDS011;46439;51.164;13.572;2023-03-01T15:28:58;13.50;;;7.20;;
60610;SDS011;46439;51.164;13.572;2023-03-01T15:31:28;14.60;;;6.80;;